Airfield :
LOGIN :

Register | Disclaimer

   EN    FR    IT 

 










Legend :    VFR   Marginal VFR   IFR   Intensive IFR   Very Intensive IFR
Visi :
Ceiling :
>= 8 km
>= 3000ft
5 to 8 km
1000 to 3000 ft
1500m to 5 km
500 to 1000 ft
800 to 1500m
200 to 500 ft
< 800m
< 200 ft
Symbols :   Thunderstorms  Fog  Heavy snow  Heavy precipitations  Wind > 20 kt
SIGMETs :     Misc.  Thunderstorms  Icing  Turbulence  Mountain Waves  Volcanic Ashes







- Airport Elevation : 1161 ft
- IATA code : RJL


LELO - Logroño-Agoncillo

CURRENT METAR :
  • 122330Z AUTO 00000KT CAVOK 07/05 Q1013

EXPIRED METARs :
  • 122300Z AUTO VRB02KT CAVOK 07/05 Q1013
  • 122230Z AUTO VRB02KT 9999 FEW039/// 08/05 Q1014
  • 122200Z 19005KT 9999 FEW035 08/05 Q1014
  • 122130Z VRB01KT 9999 FEW040 07/05 Q1015
  • 122100Z 27004KT 240V320 9999 FEW040 08/05 Q1015

TAF TAF LELO
Valid from the 12 at 18:00 until the 13 at 03:00 UTC


121700Z 1218/1303 26009KT 9999 SCT035
No reported NOTAMs for that airfield.
1 SIGMET reported for the Madrid FIR (LECM) :
 
Severe turbulence
LECM SIGMET 1 VALID 130000/130400 LEVA
LECM MADRID FIR SEV TURB FCST W OF LINE N4450 W00640 - N42 W00650 SFC/FL220 MOV E NC=



MET'MAP, your aeronautical weather chart ! - Copyright ORBIFLY December 2007 - Disclaimer

ORBIFLY MET'MAP TEAM :

Programming & Development : Alexandra Zaïnal
Concept & Development : Baudouin d'Aumeries
Co-Development & Prog : Marc-Olivier Méhu
Technical & hardware support : Manuel Goepfert

Contact : metmap@orbifly.com




SOURCES & CREDITS :

   NOAA